createdAt,value
2019-01-24T00:01:13.682Z,138.60
2019-01-24T00:02:13.901Z,137.60
2019-01-24T00:04:19.085Z,134.10
2019-01-24T00:05:19.317Z,131.30
2019-01-24T00:07:23.465Z,138.90
2019-01-24T00:08:23.702Z,139.10
2019-01-24T00:10:27.854Z,138.10
2019-01-24T00:11:28.086Z,138.90
2019-01-24T00:13:32.250Z,135.80
2019-01-24T00:14:32.484Z,135.00
2019-01-24T00:16:25.574Z,139.90
2019-01-24T00:17:25.793Z,139.70
2019-01-24T00:19:29.955Z,127.00
2019-01-24T00:20:30.182Z,129.30
2019-01-24T00:22:35.344Z,135.30
2019-01-24T00:23:35.576Z,131.60
2019-01-24T00:25:39.747Z,130.10
2019-01-24T00:26:39.967Z,141.80
2019-01-24T00:28:44.132Z,126.90
2019-01-24T00:29:44.365Z,134.10
2019-01-24T00:31:49.517Z,127.80
2019-01-24T00:32:49.750Z,122.30
2019-01-24T00:34:53.919Z,128.90
2019-01-24T00:35:54.138Z,130.30
2019-01-24T00:37:58.303Z,132.50
2019-01-24T00:38:58.498Z,125.50
2019-01-24T00:41:02.664Z,121.00
2019-01-24T00:42:02.898Z,117.70
2019-01-24T00:44:07.057Z,125.70
2019-01-24T00:45:07.289Z,118.10
2019-01-24T00:47:11.450Z,117.00
2019-01-24T00:48:11.662Z,127.20
2019-01-24T00:50:15.842Z,118.40
2019-01-24T00:51:16.050Z,121.50
2019-01-24T00:53:20.199Z,118.30
2019-01-24T00:54:20.440Z,114.40
2019-01-24T00:56:13.499Z,119.90
2019-01-24T00:57:13.734Z,114.00
2019-01-24T00:59:17.910Z,123.60
2019-01-24T01:00:18.161Z,119.00
2019-01-24T01:02:22.320Z,118.90
2019-01-24T01:03:22.527Z,110.50
2019-01-24T01:05:26.690Z,118.30
2019-01-24T01:06:26.925Z,119.50
2019-01-24T01:08:31.074Z,122.30
2019-01-24T01:09:31.302Z,118.80
2019-01-24T01:11:35.464Z,115.80
2019-01-24T01:12:35.693Z,122.00
2019-01-24T01:14:40.873Z,121.20
2019-01-24T01:15:41.104Z,129.10
2019-01-24T01:17:45.250Z,108.80
2019-01-24T01:18:45.476Z,117.70
2019-01-24T01:20:50.648Z,116.50
2019-01-24T01:21:50.884Z,113.20
2019-01-24T01:23:55.018Z,117.40
2019-01-24T01:24:55.246Z,117.00
2019-01-24T01:26:59.409Z,117.10
2019-01-24T01:27:59.641Z,119.20
2019-01-24T01:30:03.816Z,111.00
2019-01-24T01:31:04.036Z,120.60
2019-01-24T01:33:08.177Z,110.20
2019-01-24T01:34:08.406Z,110.50
2019-01-24T01:36:01.518Z,106.40
2019-01-24T01:37:09.918Z,108.70
2019-01-24T01:39:06.025Z,111.10
2019-01-24T01:40:06.257Z,121.40
2019-01-24T01:42:10.437Z,124.10
2019-01-24T01:43:10.670Z,117.90
2019-01-24T01:45:15.834Z,118.50
2019-01-24T01:46:16.066Z,121.70
2019-01-24T01:48:20.241Z,116.50
2019-01-24T01:49:20.463Z,123.60
2019-01-24T01:51:24.595Z,134.60
2019-01-24T01:52:24.826Z,122.30
2019-01-24T01:54:28.981Z,114.30
2019-01-24T01:55:29.198Z,115.80
2019-01-24T01:57:33.350Z,116.80
2019-01-24T01:58:33.569Z,119.30
2019-01-24T02:00:37.723Z,114.20
2019-01-24T02:01:37.954Z,108.80
2019-01-24T02:03:42.095Z,108.90
2019-01-24T02:04:43.051Z,103.70
2019-01-24T02:06:36.436Z,105.80
2019-01-24T02:07:36.673Z,102.40
2019-01-24T02:09:40.816Z,110.30
2019-01-24T02:10:41.026Z,106.00
2019-01-24T02:12:45.181Z,114.40
2019-01-24T02:13:45.414Z,103.60
2019-01-24T02:15:49.576Z,102.50
2019-01-24T02:16:49.820Z,108.80
2019-01-24T02:18:53.948Z,113.80
2019-01-24T02:19:54.198Z,114.10
2019-01-24T02:21:58.335Z,111.60
2019-01-24T02:22:58.567Z,111.10
2019-01-24T02:25:03.726Z,107.80
2019-01-24T02:26:03.954Z,110.70
2019-01-24T02:28:08.128Z,112.90
2019-01-24T02:29:08.353Z,108.70
2019-01-24T02:31:12.527Z,112.10
2019-01-24T02:32:12.749Z,106.10
2019-01-24T02:34:16.883Z,102.80
2019-01-24T02:35:17.119Z,105.20
2019-01-24T02:37:21.271Z,104.40
2019-01-24T02:38:21.509Z,104.20
2019-01-24T02:40:25.650Z,106.70
2019-01-24T02:41:25.888Z,111.70
2019-01-24T02:43:31.065Z,115.20
2019-01-24T02:44:31.306Z,108.80
2019-01-24T02:46:24.388Z,107.10
2019-01-24T02:47:24.622Z,111.00
2019-01-24T02:49:28.769Z,106.90
2019-01-24T02:50:28.997Z,112.20
2019-01-24T02:52:33.162Z,108.80
2019-01-24T02:53:33.392Z,106.80
2019-01-24T02:55:38.546Z,102.90
2019-01-24T02:56:38.778Z,112.30
2019-01-24T02:58:31.880Z,105.20
2019-01-24T02:59:32.113Z,105.00
2019-01-24T03:01:36.279Z,109.20
2019-01-24T03:02:36.528Z,102.70
2019-01-24T03:04:40.649Z,104.10
2019-01-24T03:05:40.883Z,100.90
2019-01-24T03:07:45.046Z,111.90
2019-01-24T03:08:45.317Z,117.00
2019-01-24T03:10:49.414Z,103.10
2019-01-24T03:11:49.650Z,106.20
2019-01-24T03:14:05.136Z,108.10
2019-01-24T03:15:05.318Z,101.80
2019-01-24T03:17:09.462Z,100.00
2019-01-24T03:18:09.688Z,94.40
2019-01-24T03:20:13.850Z,96.20
2019-01-24T03:21:14.084Z,97.70
2019-01-24T03:23:18.265Z,100.10
2019-01-24T03:24:18.472Z,99.00
2019-01-24T03:26:11.544Z,100.40
2019-01-24T03:27:11.776Z,97.80
2019-01-24T03:29:15.942Z,100.30
2019-01-24T03:30:16.168Z,105.40
2019-01-24T03:32:20.301Z,101.40
2019-01-24T03:33:20.525Z,107.20
2019-01-24T03:35:24.684Z,104.50
2019-01-24T03:36:24.917Z,102.20
2019-01-24T03:38:29.082Z,95.20
2019-01-24T03:39:29.316Z,102.30
2019-01-24T03:41:41.409Z,102.30
2019-01-24T03:42:33.842Z,100.60
2019-01-24T03:44:38.020Z,98.80
2019-01-24T03:45:38.230Z,98.20
2019-01-24T03:47:43.388Z,102.40
2019-01-24T03:48:43.625Z,94.90
2019-01-24T03:50:47.785Z,97.50
2019-01-24T03:51:48.020Z,97.50
2019-01-24T03:53:52.204Z,91.90
2019-01-24T03:54:52.426Z,100.70
2019-01-24T03:56:56.557Z,98.90
2019-01-24T03:57:56.790Z,94.20
2019-01-24T04:00:00.953Z,96.90
2019-01-24T04:01:01.177Z,97.90
2019-01-24T04:03:05.317Z,98.20
2019-01-24T04:04:05.540Z,105.20
2019-01-24T04:05:58.654Z,100.20
2019-01-24T04:06:58.869Z,104.60
2019-01-24T04:09:03.004Z,100.10
2019-01-24T04:10:03.238Z,97.40
2019-01-24T04:12:08.534Z,97.60
2019-01-24T04:13:07.628Z,95.60
2019-01-24T04:15:11.883Z,93.40
2019-01-24T04:16:12.035Z,95.70
2019-01-24T04:18:16.180Z,93.00
2019-01-24T04:19:16.401Z,99.60
2019-01-24T04:21:32.235Z,100.40
2019-01-24T04:22:32.458Z,100.30
2019-01-24T04:24:36.593Z,98.70
2019-01-24T04:25:36.847Z,95.30
2019-01-24T04:27:40.986Z,98.00
2019-01-24T04:28:41.228Z,100.20
2019-01-24T04:30:45.374Z,93.50
2019-01-24T04:31:45.612Z,98.50
2019-01-24T04:33:49.796Z,101.90
2019-01-24T04:34:50.007Z,100.80
2019-01-24T04:36:54.141Z,100.40
2019-01-24T04:37:54.386Z,94.60
2019-01-24T04:39:58.549Z,100.60
2019-01-24T04:40:58.770Z,95.60
2019-01-24T04:43:03.412Z,99.70
2019-01-24T04:44:03.641Z,100.00
2019-01-24T04:45:58.222Z,106.80
2019-01-24T04:46:58.435Z,105.80
2019-01-24T04:49:02.623Z,103.70
2019-01-24T04:50:02.868Z,106.60
2019-01-24T04:52:07.008Z,109.00
2019-01-24T04:53:07.239Z,103.80
2019-01-24T04:55:00.525Z,103.50
2019-01-24T04:56:00.750Z,106.10
2019-01-24T04:58:04.897Z,101.90
2019-01-24T04:59:05.154Z,100.10
2019-01-24T05:01:09.293Z,111.00
2019-01-24T05:02:09.512Z,105.00
2019-01-24T05:04:25.249Z,104.30
2019-01-24T05:05:27.844Z,106.30
2019-01-24T05:07:29.572Z,100.70
2019-01-24T05:08:29.801Z,102.50
2019-01-24T05:10:22.897Z,104.40
2019-01-24T05:11:23.135Z,109.00
2019-01-24T05:13:27.300Z,103.10
2019-01-24T05:14:27.514Z,99.80
2019-01-24T05:16:20.594Z,99.10
2019-01-24T05:17:20.849Z,100.00
2019-01-24T05:19:13.956Z,99.90
2019-01-24T05:20:14.159Z,101.60
2019-01-24T05:23:49.553Z,100.20
2019-01-24T05:24:59.575Z,99.10
2019-01-24T05:26:46.128Z,106.10
2019-01-24T05:27:46.362Z,102.60
2019-01-24T05:29:50.541Z,95.80
2019-01-24T05:30:50.767Z,109.00
2019-01-24T05:32:55.431Z,98.70
2019-01-24T05:33:55.134Z,98.50
2019-01-24T05:35:48.634Z,100.60
2019-01-24T05:36:48.852Z,103.00
2019-01-24T05:38:43.047Z,98.40
2019-01-24T05:39:43.277Z,97.90
2019-01-24T05:41:48.506Z,96.40
2019-01-24T05:42:48.734Z,95.40
2019-01-24T05:44:54.419Z,99.50
2019-01-24T05:45:54.633Z,94.70
2019-01-24T05:47:47.923Z,94.50
2019-01-24T05:48:48.162Z,96.60
2019-01-24T05:50:52.321Z,92.50
2019-01-24T05:51:52.555Z,98.40
2019-01-24T05:53:56.702Z,95.40
2019-01-24T05:54:56.937Z,88.90
2019-01-24T05:57:01.949Z,86.50
2019-01-24T05:58:02.182Z,93.30
2019-01-24T06:00:17.589Z,92.20
2019-01-24T06:01:17.824Z,91.30
2019-01-24T06:03:21.980Z,93.10
2019-01-24T06:04:22.220Z,96.50
2019-01-24T06:06:15.297Z,95.00
2019-01-24T06:07:15.522Z,92.00
2019-01-24T06:09:20.721Z,101.80
2019-01-24T06:10:20.977Z,95.80
2019-01-24T06:12:21.379Z,97.50
2019-01-24T06:13:14.511Z,97.80
2019-01-24T06:15:18.883Z,112.90
2019-01-24T06:16:19.113Z,97.30
2019-01-24T06:18:23.283Z,97.00
2019-01-24T06:19:23.509Z,94.30
2019-01-24T06:21:27.673Z,95.60
2019-01-24T06:22:27.909Z,93.40
2019-01-24T06:24:32.048Z,93.70
2019-01-24T06:25:32.282Z,98.60
2019-01-24T06:27:36.452Z,99.50
2019-01-24T06:28:36.684Z,95.20
2019-01-24T06:30:40.823Z,96.80
2019-01-24T06:31:41.056Z,94.00
2019-01-24T06:33:45.222Z,95.50
2019-01-24T06:34:45.454Z,95.60
2019-01-24T06:36:39.550Z,93.20
2019-01-24T06:37:39.782Z,97.20
2019-01-24T06:39:43.926Z,94.10
2019-01-24T06:40:44.153Z,88.60
2019-01-24T06:42:48.311Z,89.10
2019-01-24T06:43:48.541Z,93.90
2019-01-24T06:45:52.682Z,92.10
2019-01-24T06:46:52.907Z,99.60
2019-01-24T06:48:57.062Z,90.90
2019-01-24T06:49:57.293Z,91.90
2019-01-24T06:52:01.448Z,96.30
2019-01-24T06:53:01.680Z,99.00
2019-01-24T06:55:05.821Z,93.40
2019-01-24T06:56:06.053Z,98.10
2019-01-24T06:58:10.221Z,94.20
2019-01-24T06:59:10.454Z,97.90
2019-01-24T07:01:14.604Z,101.90
2019-01-24T07:02:14.837Z,95.90
2019-01-24T07:04:18.994Z,100.80
2019-01-24T07:05:19.223Z,97.00
2019-01-24T07:07:23.377Z,96.20
2019-01-24T07:08:23.606Z,92.20
2019-01-24T07:10:27.764Z,91.70
2019-01-24T07:11:27.997Z,93.60
2019-01-24T07:13:32.162Z,91.40
2019-01-24T07:14:32.392Z,90.80
2019-01-24T07:16:25.460Z,94.70
2019-01-24T07:17:25.689Z,91.30
2019-01-24T07:19:29.849Z,97.60
2019-01-24T07:20:30.082Z,95.30
2019-01-24T07:22:34.240Z,98.30
2019-01-24T07:23:34.470Z,92.70
2019-01-24T07:25:38.610Z,96.90
2019-01-24T07:26:38.835Z,94.30
2019-01-24T07:28:43.024Z,91.10
2019-01-24T07:29:43.252Z,93.20
2019-01-24T07:31:48.399Z,95.80
2019-01-24T07:32:48.628Z,96.10
2019-01-24T07:34:52.802Z,88.60
2019-01-24T07:35:53.030Z,90.80
2019-01-24T07:37:57.192Z,92.20
2019-01-24T07:38:57.428Z,91.70
2019-01-24T07:41:01.567Z,86.70
2019-01-24T07:42:01.800Z,87.90
2019-01-24T07:44:05.958Z,92.50
2019-01-24T07:45:06.193Z,91.60
2019-01-24T07:47:10.333Z,92.20
2019-01-24T07:48:10.562Z,93.80
2019-01-24T07:50:14.714Z,91.50
2019-01-24T07:51:14.942Z,90.40
2019-01-24T07:53:19.111Z,84.20
2019-01-24T07:54:19.338Z,86.60
2019-01-24T07:56:12.407Z,90.80
2019-01-24T07:57:12.640Z,88.40
2019-01-24T07:59:16.804Z,88.10
2019-01-24T08:00:17.038Z,91.20
2019-01-24T08:02:21.173Z,83.60
2019-01-24T08:03:21.404Z,85.20
2019-01-24T08:05:25.557Z,87.10
2019-01-24T08:06:25.788Z,90.70
2019-01-24T08:08:29.969Z,88.40
2019-01-24T08:09:30.199Z,89.50
2019-01-24T08:11:34.334Z,94.50
2019-01-24T08:12:34.564Z,90.40
2019-01-24T08:14:38.728Z,89.30
2019-01-24T08:15:38.976Z,86.40
2019-01-24T08:17:43.089Z,84.10
2019-01-24T08:18:43.321Z,89.20
2019-01-24T08:20:47.475Z,90.00
2019-01-24T08:21:47.705Z,91.60
2019-01-24T08:23:51.859Z,83.30
2019-01-24T08:24:52.091Z,88.90
2019-01-24T08:26:56.227Z,87.70
2019-01-24T08:27:56.458Z,89.90
2019-01-24T08:30:00.623Z,86.80
2019-01-24T08:31:00.853Z,89.80
2019-01-24T08:33:04.991Z,83.40
2019-01-24T08:34:05.216Z,90.20
2019-01-24T08:35:58.298Z,87.70
2019-01-24T08:36:58.529Z,90.50
2019-01-24T08:39:02.688Z,86.60
2019-01-24T08:40:02.914Z,87.40
2019-01-24T08:42:07.051Z,86.60
2019-01-24T08:43:07.280Z,82.50
2019-01-24T08:45:11.438Z,81.00
2019-01-24T08:46:11.668Z,87.00
2019-01-24T08:48:15.804Z,83.00
2019-01-24T08:49:16.033Z,85.70
2019-01-24T08:51:20.191Z,84.70
2019-01-24T08:52:20.438Z,83.90
2019-01-24T08:54:24.577Z,84.60
2019-01-24T08:55:24.804Z,83.20
2019-01-24T08:57:28.935Z,82.90
2019-01-24T08:58:29.164Z,81.30
2019-01-24T09:00:33.320Z,80.60
2019-01-24T09:01:33.551Z,78.30
2019-01-24T09:03:37.687Z,86.70
2019-01-24T09:04:37.916Z,82.90
2019-01-24T09:06:30.998Z,92.40
2019-01-24T09:07:31.230Z,89.00
2019-01-24T09:09:35.386Z,78.60
2019-01-24T09:10:35.613Z,81.40
2019-01-24T09:12:39.748Z,80.90
2019-01-24T09:13:39.982Z,81.00
2019-01-24T09:15:44.133Z,84.80
2019-01-24T09:16:44.362Z,81.50
2019-01-24T09:18:48.503Z,83.40
2019-01-24T09:19:48.733Z,77.50
2019-01-24T09:21:52.883Z,77.30
2019-01-24T09:22:55.379Z,82.60
2019-01-24T09:24:57.266Z,79.90
2019-01-24T09:25:57.496Z,80.90
2019-01-24T09:28:01.631Z,82.40
2019-01-24T09:29:01.925Z,78.50
2019-01-24T09:31:06.068Z,81.60
2019-01-24T09:32:06.297Z,75.50
2019-01-24T09:34:10.429Z,83.20
2019-01-24T09:35:10.660Z,76.60
2019-01-24T09:37:14.829Z,75.00
2019-01-24T09:38:15.061Z,76.50
2019-01-24T09:40:19.219Z,77.00
2019-01-24T09:41:19.448Z,81.60
2019-01-24T09:43:23.588Z,71.80
2019-01-24T09:44:23.816Z,78.70
2019-01-24T09:46:16.899Z,75.90
2019-01-24T09:47:17.129Z,77.70
2019-01-24T09:49:21.295Z,75.30
2019-01-24T09:50:21.494Z,76.10
2019-01-24T09:52:25.653Z,78.90
2019-01-24T09:53:25.884Z,76.00
2019-01-24T09:55:30.039Z,73.70
2019-01-24T09:56:30.269Z,69.90
2019-01-24T09:58:34.406Z,71.30
2019-01-24T09:59:34.638Z,72.10
2019-01-24T10:01:38.804Z,70.50
2019-01-24T10:02:39.032Z,70.20
2019-01-24T10:04:43.170Z,78.80
2019-01-24T10:05:43.401Z,73.20
2019-01-24T10:07:47.560Z,75.00
2019-01-24T10:08:47.794Z,72.90
2019-01-24T10:10:51.962Z,76.40
2019-01-24T10:11:52.193Z,71.10
2019-01-24T10:13:56.328Z,71.50
2019-01-24T10:14:56.560Z,69.70
2019-01-24T10:17:00.723Z,70.00
2019-01-24T10:18:00.954Z,74.40
2019-01-24T10:20:05.091Z,71.70
2019-01-24T10:21:05.323Z,73.50
2019-01-24T10:23:09.479Z,71.00
2019-01-24T10:24:09.711Z,68.30
2019-01-24T10:26:02.797Z,72.20
2019-01-24T10:27:03.046Z,69.10
2019-01-24T10:29:07.322Z,69.40
2019-01-24T10:30:07.601Z,70.70
2019-01-24T10:32:11.943Z,71.30
2019-01-24T10:33:12.144Z,68.50
2019-01-24T10:35:16.486Z,74.00
2019-01-24T10:36:16.733Z,72.70
2019-01-24T10:38:21.871Z,66.30
2019-01-24T10:39:22.125Z,69.90
2019-01-24T10:41:26.283Z,68.60
2019-01-24T10:42:26.555Z,68.00
2019-01-24T10:44:30.803Z,71.40
2019-01-24T10:45:31.122Z,67.00
2019-01-24T10:47:35.395Z,71.80
2019-01-24T10:48:35.661Z,68.90
2019-01-24T10:50:39.937Z,67.00
2019-01-24T10:51:40.137Z,72.10
2019-01-24T10:53:44.358Z,65.80
2019-01-24T10:54:44.592Z,72.00
2019-01-24T10:56:37.782Z,68.60
2019-01-24T10:57:37.989Z,69.20
2019-01-24T10:59:43.059Z,71.50
2019-01-24T11:00:43.294Z,69.00
2019-01-24T11:02:47.521Z,70.50
2019-01-24T11:03:47.783Z,69.90
2019-01-24T11:05:52.002Z,67.10
2019-01-24T11:06:52.171Z,69.70
2019-01-24T11:08:56.387Z,73.20
2019-01-24T11:09:56.864Z,76.90
2019-01-24T11:12:00.788Z,72.20
2019-01-24T11:13:01.023Z,72.40
2019-01-24T11:15:05.170Z,67.20
2019-01-24T11:16:05.404Z,71.40
2019-01-24T11:18:09.576Z,69.50
2019-01-24T11:19:09.813Z,65.40
2019-01-24T11:21:13.956Z,69.20
2019-01-24T11:22:14.188Z,66.80
2019-01-24T11:24:18.355Z,69.60
2019-01-24T11:25:18.595Z,65.10
2019-01-24T11:27:22.790Z,66.60
2019-01-24T11:28:23.093Z,68.20
2019-01-24T11:30:27.281Z,69.30
2019-01-24T11:31:27.510Z,68.60
2019-01-24T11:33:31.671Z,71.70
2019-01-24T11:34:31.908Z,70.00
2019-01-24T11:36:24.972Z,74.20
2019-01-24T11:37:25.238Z,68.20
2019-01-24T11:39:29.422Z,71.60
2019-01-24T11:40:29.656Z,67.80
2019-01-24T11:42:33.830Z,66.30
2019-01-24T11:43:34.110Z,72.20
2019-01-24T11:45:38.311Z,65.80
2019-01-24T11:46:38.535Z,67.50
2019-01-24T11:48:42.766Z,65.20
2019-01-24T11:49:42.993Z,69.30
2019-01-24T11:51:47.147Z,73.80
2019-01-24T11:52:47.382Z,70.90
2019-01-24T11:54:51.551Z,64.90
2019-01-24T11:55:51.785Z,65.80
2019-01-24T11:57:55.954Z,70.30
2019-01-24T11:58:56.185Z,69.70
2019-01-24T12:01:00.341Z,64.60
2019-01-24T12:02:00.576Z,70.30
2019-01-24T12:04:04.731Z,67.10
2019-01-24T12:05:04.965Z,68.00
2019-01-24T12:07:09.118Z,71.70
2019-01-24T12:08:09.376Z,67.70
2019-01-24T12:10:13.608Z,66.40
2019-01-24T12:11:13.910Z,62.80
2019-01-24T12:13:18.036Z,68.90
2019-01-24T12:14:18.272Z,65.30
2019-01-24T12:16:11.340Z,67.50
2019-01-24T12:17:11.573Z,61.70
2019-01-24T12:19:15.737Z,70.70
2019-01-24T12:20:15.970Z,70.70
2019-01-24T12:22:20.108Z,68.50
2019-01-24T12:23:20.340Z,69.50
2019-01-24T12:25:24.513Z,63.30
2019-01-24T12:26:24.744Z,65.90
2019-01-24T12:28:28.916Z,64.30
2019-01-24T12:29:29.152Z,66.40
2019-01-24T12:31:33.288Z,66.40
2019-01-24T12:32:33.526Z,61.90
2019-01-24T12:34:37.687Z,62.90
2019-01-24T12:35:37.922Z,66.20
2019-01-24T12:37:43.078Z,67.60
2019-01-24T12:38:43.438Z,63.40
2019-01-24T12:40:47.707Z,70.70
2019-01-24T12:41:47.904Z,68.20
2019-01-24T12:43:53.302Z,67.70
2019-01-24T12:44:53.539Z,70.30
2019-01-24T12:46:57.681Z,67.20
2019-01-24T12:47:57.969Z,66.50
2019-01-24T12:50:02.135Z,64.90
2019-01-24T12:51:02.370Z,65.80
2019-01-24T12:53:06.553Z,62.30
2019-01-24T12:54:06.806Z,67.50
2019-01-24T12:56:00.021Z,64.50
2019-01-24T12:57:00.256Z,63.30
2019-01-24T12:59:04.421Z,69.50
2019-01-24T13:00:04.656Z,63.00
2019-01-24T13:02:08.829Z,65.40
2019-01-24T13:03:09.062Z,63.20
2019-01-24T13:05:13.303Z,64.10
2019-01-24T13:06:13.529Z,65.30
2019-01-24T13:08:17.674Z,68.30
2019-01-24T13:09:17.911Z,65.10
2019-01-24T13:11:22.070Z,67.80
2019-01-24T13:12:22.322Z,71.60
2019-01-24T13:14:26.558Z,62.20
2019-01-24T13:15:26.822Z,66.10
2019-01-24T13:17:30.963Z,65.50
2019-01-24T13:18:31.318Z,68.80
2019-01-24T13:20:35.580Z,60.80
2019-01-24T13:21:35.803Z,64.00
2019-01-24T13:23:39.946Z,64.70
2019-01-24T13:24:40.210Z,64.10
2019-01-24T13:26:33.313Z,65.50
2019-01-24T13:27:33.578Z,60.40
2019-01-24T13:29:37.805Z,67.10
2019-01-24T13:30:38.074Z,63.40
2019-01-24T13:32:42.242Z,63.80
2019-01-24T13:33:42.521Z,70.00
2019-01-24T13:35:46.757Z,62.40
2019-01-24T13:36:47.031Z,62.60
2019-01-24T13:38:51.174Z,63.40
2019-01-24T13:39:51.406Z,67.10
2019-01-24T13:41:55.568Z,62.80
2019-01-24T13:42:55.804Z,63.80
2019-01-24T13:44:59.984Z,65.30
2019-01-24T13:46:00.219Z,65.20
2019-01-24T13:48:04.364Z,62.10
2019-01-24T13:49:04.602Z,61.80
2019-01-24T13:51:08.776Z,61.50
2019-01-24T13:52:09.248Z,66.50
2019-01-24T13:54:13.153Z,66.40
2019-01-24T13:55:13.384Z,65.00
2019-01-24T13:57:17.553Z,62.90
2019-01-24T13:58:17.792Z,63.80
2019-01-24T14:00:21.957Z,65.40
2019-01-24T14:01:22.191Z,64.20
2019-01-24T14:03:26.333Z,64.00
2019-01-24T14:04:26.563Z,64.30
2019-01-24T14:06:19.666Z,58.60
2019-01-24T14:07:19.901Z,60.60
2019-01-24T14:09:24.050Z,59.60
2019-01-24T14:10:24.289Z,62.50
2019-01-24T14:12:28.459Z,62.30
2019-01-24T14:13:28.691Z,59.00
2019-01-24T14:15:32.859Z,60.80
2019-01-24T14:16:33.092Z,65.00
2019-01-24T14:18:37.236Z,61.50
2019-01-24T14:19:37.471Z,60.80
2019-01-24T14:21:41.647Z,64.60
2019-01-24T14:22:41.881Z,63.00
2019-01-24T14:24:46.028Z,62.50
2019-01-24T14:25:46.256Z,64.00
2019-01-24T14:27:51.436Z,62.90
2019-01-24T14:28:51.667Z,64.10
2019-01-24T14:30:55.842Z,61.70
2019-01-24T14:31:56.072Z,60.60
2019-01-24T14:34:00.222Z,64.00
2019-01-24T14:35:00.460Z,64.50
2019-01-24T14:37:04.620Z,65.70
2019-01-24T14:38:04.856Z,64.10
2019-01-24T14:40:09.002Z,64.80
2019-01-24T14:41:09.235Z,63.90
2019-01-24T14:43:13.399Z,63.50
2019-01-24T14:44:13.635Z,68.10
2019-01-24T14:46:06.728Z,61.70
2019-01-24T14:47:06.960Z,62.60
2019-01-24T14:49:11.101Z,67.80
2019-01-24T14:50:11.342Z,66.80
2019-01-24T14:52:15.504Z,66.20
2019-01-24T14:53:15.737Z,65.70
2019-01-24T14:55:19.878Z,63.70
2019-01-24T14:56:20.111Z,68.60
2019-01-24T14:58:24.276Z,71.20
2019-01-24T14:59:24.508Z,68.50
2019-01-24T15:01:28.670Z,69.50
2019-01-24T15:02:28.901Z,67.80
2019-01-24T15:04:33.050Z,64.50
2019-01-24T15:05:33.282Z,65.00
2019-01-24T15:07:37.449Z,90.90
2019-01-24T15:08:37.679Z,93.20
2019-01-24T15:10:41.822Z,90.50
2019-01-24T15:11:42.054Z,85.70
2019-01-24T15:13:46.225Z,84.30
2019-01-24T15:14:46.458Z,82.20
2019-01-24T15:16:39.549Z,84.40
2019-01-24T15:17:39.781Z,80.60
2019-01-24T15:19:43.923Z,85.60
2019-01-24T15:20:44.155Z,89.10
2019-01-24T15:22:48.320Z,85.30
2019-01-24T15:23:48.557Z,85.60
2019-01-24T15:25:52.705Z,80.20
2019-01-24T15:26:52.936Z,81.90
2019-01-24T15:28:57.118Z,79.70
2019-01-24T15:29:57.352Z,79.60
2019-01-24T15:32:01.583Z,84.70
2019-01-24T15:33:01.816Z,81.00
2019-01-24T15:35:05.973Z,80.20
2019-01-24T15:36:06.208Z,76.80
2019-01-24T15:38:10.376Z,78.40
2019-01-24T15:39:10.609Z,83.80
2019-01-24T15:41:14.765Z,84.40
2019-01-24T15:42:15.002Z,78.00
2019-01-24T15:44:19.177Z,76.50
2019-01-24T15:45:19.414Z,78.00
2019-01-24T15:47:23.643Z,84.30
2019-01-24T15:48:23.876Z,81.90
2019-01-24T15:50:28.018Z,76.40
2019-01-24T15:51:28.247Z,75.90
2019-01-24T15:53:32.405Z,76.00
2019-01-24T15:54:32.637Z,73.20
2019-01-24T15:56:25.704Z,78.00
2019-01-24T15:57:25.935Z,77.20
2019-01-24T15:59:30.091Z,74.80
2019-01-24T16:00:30.323Z,73.30
2019-01-24T16:02:34.529Z,73.20
2019-01-24T16:03:34.809Z,74.70
2019-01-24T16:05:38.956Z,79.70
2019-01-24T16:06:39.189Z,77.00
2019-01-24T16:08:43.350Z,75.80
2019-01-24T16:09:43.581Z,78.20
2019-01-24T16:11:47.721Z,75.90
2019-01-24T16:12:47.954Z,82.40
2019-01-24T16:14:52.114Z,85.20
2019-01-24T16:15:52.346Z,78.00
2019-01-24T16:17:56.508Z,84.80
2019-01-24T16:18:56.740Z,81.10
2019-01-24T16:21:00.873Z,85.10
2019-01-24T16:22:01.113Z,86.60
2019-01-24T16:24:05.268Z,98.80
2019-01-24T16:25:05.501Z,96.90
2019-01-24T16:27:09.650Z,113.30
2019-01-24T16:28:09.884Z,117.20
2019-01-24T16:30:14.045Z,88.60
2019-01-24T16:31:14.276Z,87.30
2019-01-24T16:33:18.436Z,92.80
2019-01-24T16:34:18.669Z,98.60
2019-01-24T16:36:11.761Z,89.20
2019-01-24T16:37:11.991Z,86.20
2019-01-24T16:39:16.161Z,100.60
2019-01-24T16:40:16.395Z,104.50
2019-01-24T16:42:20.545Z,98.60
2019-01-24T16:43:20.777Z,102.10
2019-01-24T16:45:25.982Z,99.10
2019-01-24T16:46:26.213Z,103.00
2019-01-24T16:48:30.371Z,94.30
2019-01-24T16:49:30.605Z,92.70
2019-01-24T16:51:34.748Z,93.10
2019-01-24T16:52:34.983Z,91.50
2019-01-24T16:54:39.133Z,102.60
2019-01-24T16:55:39.364Z,102.50
2019-01-24T16:57:43.503Z,104.20
2019-01-24T16:58:43.736Z,102.20
2019-01-24T17:00:47.899Z,98.10
2019-01-24T17:01:48.135Z,92.30
2019-01-24T17:03:52.291Z,88.30
2019-01-24T17:04:52.530Z,93.10
2019-01-24T17:06:56.666Z,101.00
2019-01-24T17:07:56.900Z,98.70
2019-01-24T17:10:01.061Z,96.10
2019-01-24T17:11:01.297Z,94.40
2019-01-24T17:13:05.433Z,92.30
2019-01-24T17:14:05.667Z,93.20
2019-01-24T17:15:58.754Z,94.20
2019-01-24T17:16:58.988Z,92.90
2019-01-24T17:19:03.161Z,97.30
2019-01-24T17:20:03.395Z,97.90
2019-01-24T17:22:07.536Z,89.90
2019-01-24T17:23:07.770Z,94.40
2019-01-24T17:25:11.927Z,96.30
2019-01-24T17:26:12.158Z,84.30
2019-01-24T17:28:16.302Z,83.00
2019-01-24T17:29:16.535Z,81.30
2019-01-24T17:31:20.698Z,84.60
2019-01-24T17:32:20.929Z,83.50
2019-01-24T17:34:25.088Z,78.50
2019-01-24T17:35:25.322Z,80.10
2019-01-24T17:37:29.472Z,77.10
2019-01-24T17:38:29.705Z,76.50
2019-01-24T17:40:34.038Z,79.90
2019-01-24T17:41:34.196Z,84.10
2019-01-24T17:43:38.342Z,83.00
2019-01-24T17:44:38.577Z,78.00
2019-01-24T17:46:31.668Z,79.10
2019-01-24T17:47:31.904Z,79.60
2019-01-24T17:49:36.069Z,80.80
2019-01-24T17:50:36.357Z,78.00
2019-01-24T17:52:40.496Z,77.70
2019-01-24T17:53:40.732Z,81.30
2019-01-24T17:55:44.936Z,80.60
2019-01-24T17:56:45.168Z,83.00
2019-01-24T17:58:49.323Z,79.00
2019-01-24T17:59:49.588Z,80.10
2019-01-24T18:01:53.747Z,76.50
2019-01-24T18:02:53.982Z,84.10
2019-01-24T18:04:58.240Z,88.10
2019-01-24T18:05:58.522Z,84.10
2019-01-24T18:08:02.671Z,91.10
2019-01-24T18:09:02.899Z,85.00
2019-01-24T18:11:07.060Z,82.40
2019-01-24T18:12:07.294Z,85.10
2019-01-24T18:14:11.431Z,75.50
2019-01-24T18:15:11.753Z,76.90
2019-01-24T18:17:15.921Z,81.20
2019-01-24T18:18:16.156Z,80.00
2019-01-24T18:20:21.328Z,79.30
2019-01-24T18:21:21.557Z,76.10
2019-01-24T18:23:25.745Z,78.40
2019-01-24T18:24:25.928Z,75.60
2019-01-24T18:26:19.009Z,78.00
2019-01-24T18:27:19.237Z,80.20
2019-01-24T18:29:23.386Z,73.10
2019-01-24T18:30:23.619Z,77.20
2019-01-24T18:32:27.778Z,74.90
2019-01-24T18:33:28.061Z,72.70
2019-01-24T18:35:32.334Z,72.00
2019-01-24T18:36:32.666Z,72.40
2019-01-24T18:38:38.544Z,86.00
2019-01-24T18:39:37.031Z,90.00
2019-01-24T18:41:41.205Z,86.30
2019-01-24T18:42:41.440Z,90.00
2019-01-24T18:44:45.590Z,88.20
2019-01-24T18:45:45.815Z,86.80
2019-01-24T18:47:50.039Z,90.50
2019-01-24T18:48:50.319Z,83.00
2019-01-24T18:50:54.485Z,83.00
2019-01-24T18:51:54.716Z,93.50
2019-01-24T18:53:59.914Z,88.30
2019-01-24T18:55:00.238Z,91.90
2019-01-24T18:57:04.446Z,88.60
2019-01-24T18:58:04.689Z,90.80
2019-01-24T19:00:08.853Z,92.10
2019-01-24T19:01:09.082Z,98.60
2019-01-24T19:03:13.239Z,101.10
2019-01-24T19:04:13.547Z,96.90
2019-01-24T19:06:06.701Z,97.80
2019-01-24T19:07:06.956Z,96.80
2019-01-24T19:09:11.133Z,100.30
2019-01-24T19:10:11.349Z,98.10
2019-01-24T19:12:15.510Z,97.50
2019-01-24T19:13:15.824Z,96.20
2019-01-24T19:15:19.967Z,93.00
2019-01-24T19:16:20.206Z,97.10
2019-01-24T19:18:24.375Z,98.10
2019-01-24T19:19:24.756Z,101.30
2019-01-24T19:21:28.852Z,100.60
2019-01-24T19:22:29.087Z,102.50
2019-01-24T19:24:34.144Z,102.90
2019-01-24T19:25:33.475Z,105.90
2019-01-24T19:27:37.642Z,99.30
2019-01-24T19:28:37.877Z,108.70
2019-01-24T19:30:42.015Z,101.90
2019-01-24T19:31:42.252Z,95.30
2019-01-24T19:33:46.426Z,101.50